sensor_id;sensor_type;location;lat;lon;timestamp;temperature;humidity
15636;DHT22;7917;50.818;6.972;2023-01-15T00:01:03;7.10;99.90
15636;DHT22;7917;50.818;6.972;2023-01-15T00:03:30;7.10;99.90
15636;DHT22;7917;50.818;6.972;2023-01-15T00:06:01;7.10;99.90
15636;DHT22;7917;50.818;6.972;2023-01-15T00:08:28;7.10;1.00
15636;DHT22;7917;50.818;6.972;2023-01-15T00:10:54;7.00;99.90
15636;DHT22;7917;50.818;6.972;2023-01-15T00:13:21;7.00;1.00
15636;DHT22;7917;50.818;6.972;2023-01-15T00:15:48;7.00;1.00
15636;DHT22;7917;50.818;6.972;2023-01-15T00:18:14;7.00;99.90
15636;DHT22;7917;50.818;6.972;2023-01-15T00:20:41;6.90;99.90
15636;DHT22;7917;50.818;6.972;2023-01-15T00:23:08;6.90;35.60
15636;DHT22;7917;50.818;6.972;2023-01-15T00:25:55;6.80;99.90
15636;DHT22;7917;50.818;6.972;2023-01-15T00:28:41;6.90;1.00
15636;DHT22;7917;50.818;6.972;2023-01-15T00:31:07;6.90;1.00
15636;DHT22;7917;50.818;6.972;2023-01-15T00:33:34;6.80;99.90
15636;DHT22;7917;50.818;6.972;2023-01-15T00:36:01;6.80;99.90
15636;DHT22;7917;50.818;6.972;2023-01-15T00:38:28;6.70;99.90
15636;DHT22;7917;50.818;6.972;2023-01-15T00:40:54;6.70;99.90
15636;DHT22;7917;50.818;6.972;2023-01-15T00:43:21;6.60;99.90
15636;DHT22;7917;50.818;6.972;2023-01-15T00:45:48;6.70;31.10
15636;DHT22;7917;50.818;6.972;2023-01-15T00:48:16;6.70;1.00
15636;DHT22;7917;50.818;6.972;2023-01-15T00:50:42;6.60;1.00
15636;DHT22;7917;50.818;6.972;2023-01-15T00:53:09;6.60;99.90
15636;DHT22;7917;50.818;6.972;2023-01-15T00:55:37;6.60;1.00
15636;DHT22;7917;50.818;6.972;2023-01-15T00:58:04;6.60;1.00
15636;DHT22;7917;50.818;6.972;2023-01-15T01:00:30;6.60;99.90
15636;DHT22;7917;50.818;6.972;2023-01-15T01:02:57;6.50;1.00
15636;DHT22;7917;50.818;6.972;2023-01-15T01:05:23;6.60;1.00
15636;DHT22;7917;50.818;6.972;2023-01-15T01:07:50;6.50;99.90
15636;DHT22;7917;50.818;6.972;2023-01-15T01:10:17;6.50;1.00
15636;DHT22;7917;50.818;6.972;2023-01-15T01:12:44;6.50;1.00
15636;DHT22;7917;50.818;6.972;2023-01-15T01:15:13;6.40;99.90
15636;DHT22;7917;50.818;6.972;2023-01-15T01:17:39;6.40;99.90
15636;DHT22;7917;50.818;6.972;2023-01-15T01:20:07;6.40;99.90
15636;DHT22;7917;50.818;6.972;2023-01-15T01:22:35;6.40;99.90
15636;DHT22;7917;50.818;6.972;2023-01-15T01:25:02;6.40;33.90
15636;DHT22;7917;50.818;6.972;2023-01-15T01:27:28;6.30;94.80
15636;DHT22;7917;50.818;6.972;2023-01-15T01:29:56;6.30;99.90
15636;DHT22;7917;50.818;6.972;2023-01-15T01:32:22;6.40;99.90
15636;DHT22;7917;50.818;6.972;2023-01-15T01:34:49;6.40;99.90
15636;DHT22;7917;50.818;6.972;2023-01-15T01:37:15;6.40;1.00
15636;DHT22;7917;50.818;6.972;2023-01-15T01:39:42;6.50;1.00
15636;DHT22;7917;50.818;6.972;2023-01-15T01:42:11;6.50;1.00
15636;DHT22;7917;50.818;6.972;2023-01-15T01:44:59;6.50;99.90
15636;DHT22;7917;50.818;6.972;2023-01-15T01:47:27;6.50;1.00
15636;DHT22;7917;50.818;6.972;2023-01-15T01:50:01;6.50;99.90
15636;DHT22;7917;50.818;6.972;2023-01-15T01:52:32;6.50;1.00
15636;DHT22;7917;50.818;6.972;2023-01-15T01:55:01;6.50;99.90
15636;DHT22;7917;50.818;6.972;2023-01-15T01:57:29;6.50;99.90
15636;DHT22;7917;50.818;6.972;2023-01-15T01:59:58;6.50;99.90
15636;DHT22;7917;50.818;6.972;2023-01-15T02:02:26;6.50;99.90
15636;DHT22;7917;50.818;6.972;2023-01-15T02:04:53;6.50;99.90
15636;DHT22;7917;50.818;6.972;2023-01-15T02:07:20;6.50;99.90
15636;DHT22;7917;50.818;6.972;2023-01-15T02:09:46;6.50;99.90
15636;DHT22;7917;50.818;6.972;2023-01-15T02:12:20;6.50;99.90
15636;DHT22;7917;50.818;6.972;2023-01-15T02:14:53;6.50;99.90
15636;DHT22;7917;50.818;6.972;2023-01-15T02:17:29;6.50;99.90
15636;DHT22;7917;50.818;6.972;2023-01-15T02:20:09;6.50;99.90
15636;DHT22;7917;50.818;6.972;2023-01-15T02:22:53;6.50;99.90
15636;DHT22;7917;50.818;6.972;2023-01-15T02:25:30;6.40;99.90
15636;DHT22;7917;50.818;6.972;2023-01-15T02:28:01;6.40;99.90
15636;DHT22;7917;50.818;6.972;2023-01-15T02:30:32;6.40;99.90
15636;DHT22;7917;50.818;6.972;2023-01-15T02:33:05;6.40;99.90
15636;DHT22;7917;50.818;6.972;2023-01-15T02:35:37;6.40;99.90
15636;DHT22;7917;50.818;6.972;2023-01-15T02:38:07;6.30;99.90
15636;DHT22;7917;50.818;6.972;2023-01-15T02:40:36;6.30;99.90
15636;DHT22;7917;50.818;6.972;2023-01-15T02:43:06;6.30;68.60
15636;DHT22;7917;50.818;6.972;2023-01-15T02:45:37;6.30;99.90
15636;DHT22;7917;50.818;6.972;2023-01-15T02:48:06;6.30;99.90
15636;DHT22;7917;50.818;6.972;2023-01-15T02:50:36;6.30;99.90
15636;DHT22;7917;50.818;6.972;2023-01-15T02:53:08;6.20;99.90
15636;DHT22;7917;50.818;6.972;2023-01-15T02:55:40;6.20;99.90
15636;DHT22;7917;50.818;6.972;2023-01-15T02:58:10;6.20;99.90
15636;DHT22;7917;50.818;6.972;2023-01-15T03:00:41;6.20;99.90
15636;DHT22;7917;50.818;6.972;2023-01-15T03:03:11;6.20;99.90
15636;DHT22;7917;50.818;6.972;2023-01-15T03:05:42;6.20;99.90
15636;DHT22;7917;50.818;6.972;2023-01-15T03:08:14;6.30;99.90
15636;DHT22;7917;50.818;6.972;2023-01-15T03:10:45;6.30;99.90
15636;DHT22;7917;50.818;6.972;2023-01-15T03:13:18;6.30;99.90
15636;DHT22;7917;50.818;6.972;2023-01-15T03:15:54;6.30;99.90
15636;DHT22;7917;50.818;6.972;2023-01-15T03:18:44;6.20;99.90
15636;DHT22;7917;50.818;6.972;2023-01-15T03:21:18;6.20;99.90
15636;DHT22;7917;50.818;6.972;2023-01-15T03:23:49;6.20;99.90
15636;DHT22;7917;50.818;6.972;2023-01-15T03:26:17;6.20;99.90
15636;DHT22;7917;50.818;6.972;2023-01-15T03:28:46;6.20;99.90
15636;DHT22;7917;50.818;6.972;2023-01-15T03:31:13;6.30;99.90
15636;DHT22;7917;50.818;6.972;2023-01-15T03:33:41;6.30;99.90
15636;DHT22;7917;50.818;6.972;2023-01-15T03:36:08;6.30;99.90
15636;DHT22;7917;50.818;6.972;2023-01-15T03:38:37;6.30;99.90
15636;DHT22;7917;50.818;6.972;2023-01-15T03:41:13;6.40;86.50
15636;DHT22;7917;50.818;6.972;2023-01-15T03:43:51;6.40;99.90
15636;DHT22;7917;50.818;6.972;2023-01-15T03:46:43;6.40;1.00
15636;DHT22;7917;50.818;6.972;2023-01-15T03:49:20;6.50;1.00
15636;DHT22;7917;50.818;6.972;2023-01-15T03:51:56;6.50;1.00
15636;DHT22;7917;50.818;6.972;2023-01-15T03:54:34;6.50;1.00
15636;DHT22;7917;50.818;6.972;2023-01-15T03:57:07;6.50;1.00
15636;DHT22;7917;50.818;6.972;2023-01-15T03:59:44;6.50;1.00
15636;DHT22;7917;50.818;6.972;2023-01-15T04:02:13;6.50;1.00
15636;DHT22;7917;50.818;6.972;2023-01-15T04:04:41;6.60;1.00
15636;DHT22;7917;50.818;6.972;2023-01-15T04:07:09;6.60;1.00
15636;DHT22;7917;50.818;6.972;2023-01-15T04:09:36;6.50;1.00
15636;DHT22;7917;50.818;6.972;2023-01-15T04:12:04;6.60;1.00
15636;DHT22;7917;50.818;6.972;2023-01-15T04:14:32;6.50;1.00
15636;DHT22;7917;50.818;6.972;2023-01-15T04:16:59;6.50;1.00
15636;DHT22;7917;50.818;6.972;2023-01-15T04:19:26;6.50;1.00
15636;DHT22;7917;50.818;6.972;2023-01-15T04:21:52;6.50;1.00
15636;DHT22;7917;50.818;6.972;2023-01-15T04:24:19;6.50;1.00
15636;DHT22;7917;50.818;6.972;2023-01-15T04:26:45;6.40;1.00
15636;DHT22;7917;50.818;6.972;2023-01-15T04:29:12;6.40;1.00
15636;DHT22;7917;50.818;6.972;2023-01-15T04:31:39;6.40;1.00
15636;DHT22;7917;50.818;6.972;2023-01-15T04:34:06;6.40;1.00
15636;DHT22;7917;50.818;6.972;2023-01-15T04:36:33;6.30;48.40
15636;DHT22;7917;50.818;6.972;2023-01-15T04:39:00;6.30;1.00
15636;DHT22;7917;50.818;6.972;2023-01-15T04:41:27;6.30;88.20
15636;DHT22;7917;50.818;6.972;2023-01-15T04:44:12;6.30;1.00
15636;DHT22;7917;50.818;6.972;2023-01-15T04:46:39;6.30;99.90
15636;DHT22;7917;50.818;6.972;2023-01-15T04:49:10;6.20;24.40
15636;DHT22;7917;50.818;6.972;2023-01-15T04:51:37;6.30;1.00
15636;DHT22;7917;50.818;6.972;2023-01-15T04:54:04;6.20;68.30
15636;DHT22;7917;50.818;6.972;2023-01-15T04:56:35;6.30;1.00
15636;DHT22;7917;50.818;6.972;2023-01-15T04:59:02;6.30;1.00
15636;DHT22;7917;50.818;6.972;2023-01-15T05:01:29;6.30;1.00
15636;DHT22;7917;50.818;6.972;2023-01-15T05:03:55;6.40;1.00
15636;DHT22;7917;50.818;6.972;2023-01-15T05:06:24;6.40;1.00
15636;DHT22;7917;50.818;6.972;2023-01-15T05:08:51;6.50;1.00
15636;DHT22;7917;50.818;6.972;2023-01-15T05:11:17;6.50;1.00
15636;DHT22;7917;50.818;6.972;2023-01-15T05:13:44;6.50;1.00
15636;DHT22;7917;50.818;6.972;2023-01-15T05:16:13;6.50;1.00
15636;DHT22;7917;50.818;6.972;2023-01-15T05:18:40;6.50;1.00
15636;DHT22;7917;50.818;6.972;2023-01-15T05:21:13;6.60;1.00
15636;DHT22;7917;50.818;6.972;2023-01-15T05:23:41;6.60;1.00
15636;DHT22;7917;50.818;6.972;2023-01-15T05:26:08;6.60;1.00
15636;DHT22;7917;50.818;6.972;2023-01-15T05:28:35;6.60;1.00
15636;DHT22;7917;50.818;6.972;2023-01-15T05:31:06;6.60;1.00
15636;DHT22;7917;50.818;6.972;2023-01-15T05:33:33;6.60;1.00
15636;DHT22;7917;50.818;6.972;2023-01-15T05:36:01;6.60;1.00
15636;DHT22;7917;50.818;6.972;2023-01-15T05:38:27;6.60;99.90
15636;DHT22;7917;50.818;6.972;2023-01-15T05:40:55;6.60;99.90
15636;DHT22;7917;50.818;6.972;2023-01-15T05:43:21;6.60;99.90
15636;DHT22;7917;50.818;6.972;2023-01-15T05:45:51;6.60;1.00
15636;DHT22;7917;50.818;6.972;2023-01-15T05:48:17;6.50;1.00
15636;DHT22;7917;50.818;6.972;2023-01-15T05:50:44;6.50;1.00
15636;DHT22;7917;50.818;6.972;2023-01-15T05:53:11;6.40;1.00
15636;DHT22;7917;50.818;6.972;2023-01-15T05:55:37;6.40;1.00
15636;DHT22;7917;50.818;6.972;2023-01-15T05:58:05;6.40;1.00
15636;DHT22;7917;50.818;6.972;2023-01-15T06:00:31;6.30;1.00
15636;DHT22;7917;50.818;6.972;2023-01-15T06:02:58;6.30;1.00
15636;DHT22;7917;50.818;6.972;2023-01-15T06:05:24;6.20;1.00
15636;DHT22;7917;50.818;6.972;2023-01-15T06:07:51;6.20;1.00
15636;DHT22;7917;50.818;6.972;2023-01-15T06:10:18;6.20;1.00
15636;DHT22;7917;50.818;6.972;2023-01-15T06:12:44;6.10;1.00
15636;DHT22;7917;50.818;6.972;2023-01-15T06:15:12;6.10;1.00
15636;DHT22;7917;50.818;6.972;2023-01-15T06:17:39;6.00;47.70
15636;DHT22;7917;50.818;6.972;2023-01-15T06:20:06;6.00;84.20
15636;DHT22;7917;50.818;6.972;2023-01-15T06:22:33;6.00;99.90
15636;DHT22;7917;50.818;6.972;2023-01-15T06:25:00;6.00;98.20
15636;DHT22;7917;50.818;6.972;2023-01-15T06:27:27;6.00;19.70
15636;DHT22;7917;50.818;6.972;2023-01-15T06:29:53;6.00;99.90
15636;DHT22;7917;50.818;6.972;2023-01-15T06:32:23;6.00;20.40
15636;DHT22;7917;50.818;6.972;2023-01-15T06:34:50;6.00;1.00
15636;DHT22;7917;50.818;6.972;2023-01-15T06:37:16;6.00;99.90
15636;DHT22;7917;50.818;6.972;2023-01-15T06:39:43;6.00;99.90
15636;DHT22;7917;50.818;6.972;2023-01-15T06:42:09;5.90;99.90
15636;DHT22;7917;50.818;6.972;2023-01-15T06:44:54;5.80;99.90
15636;DHT22;7917;50.818;6.972;2023-01-15T06:47:39;5.80;99.90
15636;DHT22;7917;50.818;6.972;2023-01-15T06:50:06;5.70;99.90
15636;DHT22;7917;50.818;6.972;2023-01-15T06:52:33;5.60;99.90
15636;DHT22;7917;50.818;6.972;2023-01-15T06:55:00;5.60;99.90
15636;DHT22;7917;50.818;6.972;2023-01-15T06:57:26;5.50;99.90
15636;DHT22;7917;50.818;6.972;2023-01-15T06:59:53;5.50;1.00
15636;DHT22;7917;50.818;6.972;2023-01-15T07:02:19;5.40;1.00
15636;DHT22;7917;50.818;6.972;2023-01-15T07:04:47;5.40;1.00
15636;DHT22;7917;50.818;6.972;2023-01-15T07:07:14;5.40;1.00
15636;DHT22;7917;50.818;6.972;2023-01-15T07:09:40;5.40;1.00
15636;DHT22;7917;50.818;6.972;2023-01-15T07:12:07;5.40;1.00
15636;DHT22;7917;50.818;6.972;2023-01-15T07:14:33;5.40;1.00
15636;DHT22;7917;50.818;6.972;2023-01-15T07:17:01;5.40;1.00
15636;DHT22;7917;50.818;6.972;2023-01-15T07:19:28;5.40;99.90
15636;DHT22;7917;50.818;6.972;2023-01-15T07:21:55;5.40;99.90
15636;DHT22;7917;50.818;6.972;2023-01-15T07:24:21;5.50;99.90
15636;DHT22;7917;50.818;6.972;2023-01-15T07:26:48;5.50;99.90
15636;DHT22;7917;50.818;6.972;2023-01-15T07:29:15;5.50;99.90
15636;DHT22;7917;50.818;6.972;2023-01-15T07:31:41;5.60;99.90
15636;DHT22;7917;50.818;6.972;2023-01-15T07:34:08;5.60;99.90
15636;DHT22;7917;50.818;6.972;2023-01-15T07:36:34;5.60;99.90
15636;DHT22;7917;50.818;6.972;2023-01-15T07:39:03;5.60;99.90
15636;DHT22;7917;50.818;6.972;2023-01-15T07:41:30;5.60;99.90
15636;DHT22;7917;50.818;6.972;2023-01-15T07:44:14;5.60;99.90
15636;DHT22;7917;50.818;6.972;2023-01-15T07:47:01;5.60;99.90
15636;DHT22;7917;50.818;6.972;2023-01-15T07:49:47;5.60;76.40
15636;DHT22;7917;50.818;6.972;2023-01-15T07:52:15;5.60;99.90
15636;DHT22;7917;50.818;6.972;2023-01-15T07:54:43;5.60;72.10
15636;DHT22;7917;50.818;6.972;2023-01-15T07:57:10;5.60;99.90
15636;DHT22;7917;50.818;6.972;2023-01-15T07:59:38;5.60;71.40
15636;DHT22;7917;50.818;6.972;2023-01-15T08:02:05;5.60;99.50
15636;DHT22;7917;50.818;6.972;2023-01-15T08:04:32;5.60;19.10
15636;DHT22;7917;50.818;6.972;2023-01-15T08:06:59;5.60;1.00
15636;DHT22;7917;50.818;6.972;2023-01-15T08:09:26;5.70;1.00
15636;DHT22;7917;50.818;6.972;2023-01-15T08:11:54;5.70;1.00
15636;DHT22;7917;50.818;6.972;2023-01-15T08:14:39;5.70;1.00
15636;DHT22;7917;50.818;6.972;2023-01-15T08:17:23;5.60;94.70
15636;DHT22;7917;50.818;6.972;2023-01-15T08:19:50;5.50;1.00
15636;DHT22;7917;50.818;6.972;2023-01-15T08:22:16;5.40;1.00
15636;DHT22;7917;50.818;6.972;2023-01-15T08:24:43;5.30;1.00
15636;DHT22;7917;50.818;6.972;2023-01-15T08:27:11;5.20;99.90
15636;DHT22;7917;50.818;6.972;2023-01-15T08:29:38;5.20;1.00
15636;DHT22;7917;50.818;6.972;2023-01-15T08:32:05;5.30;91.10
15636;DHT22;7917;50.818;6.972;2023-01-15T08:34:31;5.20;1.00
15636;DHT22;7917;50.818;6.972;2023-01-15T08:36:58;5.10;99.90
15636;DHT22;7917;50.818;6.972;2023-01-15T08:39:25;5.10;99.90
15636;DHT22;7917;50.818;6.972;2023-01-15T08:41:52;5.00;1.00
15636;DHT22;7917;50.818;6.972;2023-01-15T08:44:20;4.90;1.00
15636;DHT22;7917;50.818;6.972;2023-01-15T08:46:47;4.90;1.00
15636;DHT22;7917;50.818;6.972;2023-01-15T08:49:13;4.80;99.90
15636;DHT22;7917;50.818;6.972;2023-01-15T08:51:40;4.80;1.00
15636;DHT22;7917;50.818;6.972;2023-01-15T08:54:07;4.80;99.90
15636;DHT22;7917;50.818;6.972;2023-01-15T08:56:36;4.80;1.00
15636;DHT22;7917;50.818;6.972;2023-01-15T08:59:04;4.80;99.90
15636;DHT22;7917;50.818;6.972;2023-01-15T09:01:31;4.80;1.00
15636;DHT22;7917;50.818;6.972;2023-01-15T09:03:58;4.90;99.90
15636;DHT22;7917;50.818;6.972;2023-01-15T09:06:25;4.90;99.90
15636;DHT22;7917;50.818;6.972;2023-01-15T09:08:52;5.00;99.90
15636;DHT22;7917;50.818;6.972;2023-01-15T09:11:18;5.00;1.00
15636;DHT22;7917;50.818;6.972;2023-01-15T09:13:45;5.10;1.00
15636;DHT22;7917;50.818;6.972;2023-01-15T09:16:12;5.20;99.90
15636;DHT22;7917;50.818;6.972;2023-01-15T09:18:39;5.30;1.00
15636;DHT22;7917;50.818;6.972;2023-01-15T09:21:06;5.40;99.90
15636;DHT22;7917;50.818;6.972;2023-01-15T09:23:32;5.50;99.90
15636;DHT22;7917;50.818;6.972;2023-01-15T09:26:01;5.50;99.90
15636;DHT22;7917;50.818;6.972;2023-01-15T09:28:31;5.60;99.90
15636;DHT22;7917;50.818;6.972;2023-01-15T09:30:57;5.60;1.00
15636;DHT22;7917;50.818;6.972;2023-01-15T09:33:24;5.70;99.90
15636;DHT22;7917;50.818;6.972;2023-01-15T09:35:52;5.70;1.00
15636;DHT22;7917;50.818;6.972;2023-01-15T09:38:20;5.70;1.00
15636;DHT22;7917;50.818;6.972;2023-01-15T09:40:49;5.70;99.90
15636;DHT22;7917;50.818;6.972;2023-01-15T09:43:36;5.80;99.90
15636;DHT22;7917;50.818;6.972;2023-01-15T09:46:09;5.80;99.90
15636;DHT22;7917;50.818;6.972;2023-01-15T09:48:46;5.90;10.80
15636;DHT22;7917;50.818;6.972;2023-01-15T09:51:26;5.90;1.00
15636;DHT22;7917;50.818;6.972;2023-01-15T09:54:17;6.00;1.00
15636;DHT22;7917;50.818;6.972;2023-01-15T10:03:46;6.40;1.00
15636;DHT22;7917;50.818;6.972;2023-01-15T10:06:21;6.30;1.00
15636;DHT22;7917;50.818;6.972;2023-01-15T10:08:51;6.30;1.00
15636;DHT22;7917;50.818;6.972;2023-01-15T10:11:33;6.20;1.00
15636;DHT22;7917;50.818;6.972;2023-01-15T10:14:34;6.30;1.00
15636;DHT22;7917;50.818;6.972;2023-01-15T10:17:12;6.40;1.00
15636;DHT22;7917;50.818;6.972;2023-01-15T10:19:41;6.50;1.00
15636;DHT22;7917;50.818;6.972;2023-01-15T10:22:11;6.60;1.00
15636;DHT22;7917;50.818;6.972;2023-01-15T10:24:46;6.70;1.00
15636;DHT22;7917;50.818;6.972;2023-01-15T10:27:18;6.80;99.90
15636;DHT22;7917;50.818;6.972;2023-01-15T10:29:51;6.90;99.90
15636;DHT22;7917;50.818;6.972;2023-01-15T10:32:25;6.90;99.90
15636;DHT22;7917;50.818;6.972;2023-01-15T10:35:08;7.00;99.90
15636;DHT22;7917;50.818;6.972;2023-01-15T10:37:46;7.10;99.90
15636;DHT22;7917;50.818;6.972;2023-01-15T10:40:37;7.10;99.90
15636;DHT22;7917;50.818;6.972;2023-01-15T10:43:11;7.20;99.90
15636;DHT22;7917;50.818;6.972;2023-01-15T10:45:43;7.20;99.90
15636;DHT22;7917;50.818;6.972;2023-01-15T10:48:15;7.30;99.90
15636;DHT22;7917;50.818;6.972;2023-01-15T10:50:45;7.30;99.90
15636;DHT22;7917;50.818;6.972;2023-01-15T10:53:17;7.30;99.90
15636;DHT22;7917;50.818;6.972;2023-01-15T10:55:53;7.30;99.90
15636;DHT22;7917;50.818;6.972;2023-01-15T10:58:28;7.30;99.90
15636;DHT22;7917;50.818;6.972;2023-01-15T11:00:59;7.40;99.90
15636;DHT22;7917;50.818;6.972;2023-01-15T11:03:35;7.50;99.90
15636;DHT22;7917;50.818;6.972;2023-01-15T11:06:01;7.50;99.90
15636;DHT22;7917;50.818;6.972;2023-01-15T11:08:30;7.60;99.90
15636;DHT22;7917;50.818;6.972;2023-01-15T11:11:08;7.50;99.90
15636;DHT22;7917;50.818;6.972;2023-01-15T11:13:39;7.50;99.90
15636;DHT22;7917;50.818;6.972;2023-01-15T11:16:36;7.50;99.90
15636;DHT22;7917;50.818;6.972;2023-01-15T11:19:26;7.60;99.90
15636;DHT22;7917;50.818;6.972;2023-01-15T11:22:08;7.60;99.90
15636;DHT22;7917;50.818;6.972;2023-01-15T11:24:47;7.60;99.90
15636;DHT22;7917;50.818;6.972;2023-01-15T11:27:16;7.60;99.90
15636;DHT22;7917;50.818;6.972;2023-01-15T11:29:44;7.70;99.90
15636;DHT22;7917;50.818;6.972;2023-01-15T11:32:26;7.70;99.90
15636;DHT22;7917;50.818;6.972;2023-01-15T11:34:54;7.80;99.90
15636;DHT22;7917;50.818;6.972;2023-01-15T11:37:21;7.90;99.90
15636;DHT22;7917;50.818;6.972;2023-01-15T11:39:55;7.90;99.90
15636;DHT22;7917;50.818;6.972;2023-01-15T11:42:22;7.90;99.90
15636;DHT22;7917;50.818;6.972;2023-01-15T11:45:18;7.80;99.90
15636;DHT22;7917;50.818;6.972;2023-01-15T11:48:13;7.80;99.90
15636;DHT22;7917;50.818;6.972;2023-01-15T11:51:01;7.80;99.90
15636;DHT22;7917;50.818;6.972;2023-01-15T11:53:34;7.80;99.90
15636;DHT22;7917;50.818;6.972;2023-01-15T11:56:08;7.80;99.90
15636;DHT22;7917;50.818;6.972;2023-01-15T11:58:40;7.90;99.90
15636;DHT22;7917;50.818;6.972;2023-01-15T12:01:11;7.90;99.90
15636;DHT22;7917;50.818;6.972;2023-01-15T12:03:40;7.80;99.90
15636;DHT22;7917;50.818;6.972;2023-01-15T12:06:09;7.80;99.90
15636;DHT22;7917;50.818;6.972;2023-01-15T12:08:44;7.60;99.90
15636;DHT22;7917;50.818;6.972;2023-01-15T12:14:28;7.70;99.90
15636;DHT22;7917;50.818;6.972;2023-01-15T12:17:01;7.70;99.90
15636;DHT22;7917;50.818;6.972;2023-01-15T12:19:32;7.70;99.90
15636;DHT22;7917;50.818;6.972;2023-01-15T12:22:23;7.70;99.90
15636;DHT22;7917;50.818;6.972;2023-01-15T12:25:10;7.60;99.90
15636;DHT22;7917;50.818;6.972;2023-01-15T12:28:01;7.50;99.90
15636;DHT22;7917;50.818;6.972;2023-01-15T12:30:37;7.40;99.90
15636;DHT22;7917;50.818;6.972;2023-01-15T12:33:19;7.50;99.90
15636;DHT22;7917;50.818;6.972;2023-01-15T12:35:52;7.60;99.90
15636;DHT22;7917;50.818;6.972;2023-01-15T12:38:33;7.80;99.90
15636;DHT22;7917;50.818;6.972;2023-01-15T12:41:09;8.00;99.90
15636;DHT22;7917;50.818;6.972;2023-01-15T12:43:38;8.20;99.90
15636;DHT22;7917;50.818;6.972;2023-01-15T12:46:25;8.30;99.90
15636;DHT22;7917;50.818;6.972;2023-01-15T12:48:57;8.30;99.90
15636;DHT22;7917;50.818;6.972;2023-01-15T12:51:32;8.30;99.90
15636;DHT22;7917;50.818;6.972;2023-01-15T12:54:05;8.20;99.90
15636;DHT22;7917;50.818;6.972;2023-01-15T12:56:45;8.10;99.90
15636;DHT22;7917;50.818;6.972;2023-01-15T12:59:19;8.10;99.90
15636;DHT22;7917;50.818;6.972;2023-01-15T13:01:52;8.10;99.90
15636;DHT22;7917;50.818;6.972;2023-01-15T13:04:25;8.00;99.90
15636;DHT22;7917;50.818;6.972;2023-01-15T13:06:57;7.90;99.90
15636;DHT22;7917;50.818;6.972;2023-01-15T13:09:34;7.90;99.90
15636;DHT22;7917;50.818;6.972;2023-01-15T13:12:11;8.00;99.90
15636;DHT22;7917;50.818;6.972;2023-01-15T13:14:40;8.00;99.90
15636;DHT22;7917;50.818;6.972;2023-01-15T13:17:13;8.00;99.90
15636;DHT22;7917;50.818;6.972;2023-01-15T13:19:49;8.00;99.90
15636;DHT22;7917;50.818;6.972;2023-01-15T13:22:24;8.00;99.90
15636;DHT22;7917;50.818;6.972;2023-01-15T13:25:20;8.10;99.90
15636;DHT22;7917;50.818;6.972;2023-01-15T13:27:59;8.00;99.90
15636;DHT22;7917;50.818;6.972;2023-01-15T13:30:41;8.10;99.90
15636;DHT22;7917;50.818;6.972;2023-01-15T13:33:17;8.10;99.90
15636;DHT22;7917;50.818;6.972;2023-01-15T13:35:50;8.00;99.90
15636;DHT22;7917;50.818;6.972;2023-01-15T13:38:20;8.00;99.90
15636;DHT22;7917;50.818;6.972;2023-01-15T13:40:49;7.90;99.90
15636;DHT22;7917;50.818;6.972;2023-01-15T13:43:31;7.80;99.90
15636;DHT22;7917;50.818;6.972;2023-01-15T13:46:01;7.70;99.90
15636;DHT22;7917;50.818;6.972;2023-01-15T13:48:32;7.80;99.90
15636;DHT22;7917;50.818;6.972;2023-01-15T13:51:02;7.90;99.90
15636;DHT22;7917;50.818;6.972;2023-01-15T13:53:31;8.00;99.90
15636;DHT22;7917;50.818;6.972;2023-01-15T13:56:01;7.90;99.90
15636;DHT22;7917;50.818;6.972;2023-01-15T13:58:32;7.90;99.90
15636;DHT22;7917;50.818;6.972;2023-01-15T14:01:19;7.90;99.90
15636;DHT22;7917;50.818;6.972;2023-01-15T14:03:57;7.90;99.90
15636;DHT22;7917;50.818;6.972;2023-01-15T14:06:35;7.90;99.90
15636;DHT22;7917;50.818;6.972;2023-01-15T14:09:01;7.90;99.90
15636;DHT22;7917;50.818;6.972;2023-01-15T14:11:37;7.90;99.90
15636;DHT22;7917;50.818;6.972;2023-01-15T14:14:30;7.90;99.90
15636;DHT22;7917;50.818;6.972;2023-01-15T14:17:20;7.90;99.90
15636;DHT22;7917;50.818;6.972;2023-01-15T14:20:13;7.90;99.90
15636;DHT22;7917;50.818;6.972;2023-01-15T14:22:57;7.90;99.90
15636;DHT22;7917;50.818;6.972;2023-01-15T14:25:49;7.80;99.90
15636;DHT22;7917;50.818;6.972;2023-01-15T14:28:41;7.80;99.90
15636;DHT22;7917;50.818;6.972;2023-01-15T14:31:32;7.80;99.90
15636;DHT22;7917;50.818;6.972;2023-01-15T14:34:11;7.80;99.90
15636;DHT22;7917;50.818;6.972;2023-01-15T14:36:46;7.80;99.90
15636;DHT22;7917;50.818;6.972;2023-01-15T14:42:14;7.70;99.90
15636;DHT22;7917;50.818;6.972;2023-01-15T14:45:03;7.70;99.90
15636;DHT22;7917;50.818;6.972;2023-01-15T14:47:35;7.70;99.90
15636;DHT22;7917;50.818;6.972;2023-01-15T14:50:31;7.70;99.90
15636;DHT22;7917;50.818;6.972;2023-01-15T14:53:22;7.70;99.90
15636;DHT22;7917;50.818;6.972;2023-01-15T14:55:52;7.70;99.90
15636;DHT22;7917;50.818;6.972;2023-01-15T14:58:40;7.70;99.90
15636;DHT22;7917;50.818;6.972;2023-01-15T15:01:16;7.60;99.90
15636;DHT22;7917;50.818;6.972;2023-01-15T15:03:49;7.60;99.90
15636;DHT22;7917;50.818;6.972;2023-01-15T15:06:17;7.60;99.90
15636;DHT22;7917;50.818;6.972;2023-01-15T15:08:45;7.60;99.90
15636;DHT22;7917;50.818;6.972;2023-01-15T15:11:19;7.50;99.90
15636;DHT22;7917;50.818;6.972;2023-01-15T15:14:12;7.60;99.90
15636;DHT22;7917;50.818;6.972;2023-01-15T15:16:43;7.50;99.90
15636;DHT22;7917;50.818;6.972;2023-01-15T15:19:17;7.60;99.90
15636;DHT22;7917;50.818;6.972;2023-01-15T15:21:52;7.60;99.90
15636;DHT22;7917;50.818;6.972;2023-01-15T15:24:23;7.60;99.90
15636;DHT22;7917;50.818;6.972;2023-01-15T15:26:51;7.50;99.90
15636;DHT22;7917;50.818;6.972;2023-01-15T15:29:19;7.50;99.90
15636;DHT22;7917;50.818;6.972;2023-01-15T15:31:48;7.50;99.90
15636;DHT22;7917;50.818;6.972;2023-01-15T15:34:24;7.50;99.90
15636;DHT22;7917;50.818;6.972;2023-01-15T15:36:54;7.60;99.90
15636;DHT22;7917;50.818;6.972;2023-01-15T15:39:24;7.60;99.90
15636;DHT22;7917;50.818;6.972;2023-01-15T15:41:56;7.50;99.90
15636;DHT22;7917;50.818;6.972;2023-01-15T15:44:44;7.40;99.90
15636;DHT22;7917;50.818;6.972;2023-01-15T15:47:36;7.40;99.90
15636;DHT22;7917;50.818;6.972;2023-01-15T15:50:23;7.30;99.90
15636;DHT22;7917;50.818;6.972;2023-01-15T15:52:51;7.30;99.90
15636;DHT22;7917;50.818;6.972;2023-01-15T15:55:19;7.30;99.90
15636;DHT22;7917;50.818;6.972;2023-01-15T15:57:48;7.20;99.90
15636;DHT22;7917;50.818;6.972;2023-01-15T16:00:19;7.10;99.90
15636;DHT22;7917;50.818;6.972;2023-01-15T16:02:49;7.00;99.90
15636;DHT22;7917;50.818;6.972;2023-01-15T16:05:22;7.00;99.90
15636;DHT22;7917;50.818;6.972;2023-01-15T16:07:49;7.00;99.90
15636;DHT22;7917;50.818;6.972;2023-01-15T16:10:18;6.80;99.90
15636;DHT22;7917;50.818;6.972;2023-01-15T16:12:47;6.80;99.90
15636;DHT22;7917;50.818;6.972;2023-01-15T16:15:15;6.80;99.90
15636;DHT22;7917;50.818;6.972;2023-01-15T16:17:43;6.80;99.90
15636;DHT22;7917;50.818;6.972;2023-01-15T16:20:12;6.80;99.90
15636;DHT22;7917;50.818;6.972;2023-01-15T16:22:44;6.80;99.90
15636;DHT22;7917;50.818;6.972;2023-01-15T16:25:21;6.80;99.90
15636;DHT22;7917;50.818;6.972;2023-01-15T16:27:48;6.80;99.90
15636;DHT22;7917;50.818;6.972;2023-01-15T16:30:15;6.80;99.90
15636;DHT22;7917;50.818;6.972;2023-01-15T16:32:42;6.80;99.90
15636;DHT22;7917;50.818;6.972;2023-01-15T16:35:15;6.80;99.90
15636;DHT22;7917;50.818;6.972;2023-01-15T16:37:46;6.80;99.90
15636;DHT22;7917;50.818;6.972;2023-01-15T16:40:24;6.80;99.90
15636;DHT22;7917;50.818;6.972;2023-01-15T16:43:03;6.80;99.90
15636;DHT22;7917;50.818;6.972;2023-01-15T16:45:31;6.80;99.90
15636;DHT22;7917;50.818;6.972;2023-01-15T16:48:10;6.90;99.90
15636;DHT22;7917;50.818;6.972;2023-01-15T16:50:39;6.90;99.90